Time;durP1;ratioP1;P1;durP2;ratioP2;P2;SDS_P1;SDS_P2;PMS_P1;PMS_P2;Temp;Humidity;BMP_temperature;BMP_pressure;BME280_temperature;BME280_humidity;BME280_pressure;Samples;Min_cycle;Max_cycle;Signal;HPM_P1;HPM_P2
2021/09/21 00:02:25;;;;;;;2.67;2.12;;;;;;;19.08;47.61;99424.32;1777748;78;21045;-64
2021/09/21 00:04:51;;;;;;;2.77;2.40;;;;;;;19.11;47.61;99425.75;1777960;78;21549;-65
2021/09/21 00:07:19;;;;;;;2.45;1.98;;;;;;;19.13;47.66;99429.03;1779317;79;21076;-65
2021/09/21 00:09:46;;;;;;;2.30;2.10;;;;;;;19.14;47.65;99427.96;1805840;78;21510;-63
2021/09/21 00:12:13;;;;;;;2.08;1.95;;;;;;;19.16;47.68;99428.05;1801357;78;21135;-64
2021/09/21 00:14:40;;;;;;;2.87;2.02;;;;;;;19.19;47.67;99429.44;1792849;78;21620;-64
2021/09/21 00:17:06;;;;;;;2.58;2.27;;;;;;;19.19;47.69;99429.44;1793660;78;21037;-64
2021/09/21 00:19:33;;;;;;;2.05;1.95;;;;;;;19.21;47.67;99434.06;1797599;78;21076;-63
2021/09/21 00:22:01;;;;;;;2.83;2.33;;;;;;;19.21;47.66;99432.19;1758988;78;21053;-63
2021/09/21 00:24:29;;;;;;;2.17;1.98;;;;;;;19.22;47.64;99431.69;1767876;78;21101;-63
2021/09/21 00:26:55;;;;;;;2.25;1.80;;;;;;;19.23;47.64;99431.42;1768887;78;21554;-64
2021/09/21 00:29:21;;;;;;;2.50;2.00;;;;;;;19.24;47.64;99428.23;1778256;78;21103;-63
2021/09/21 00:31:56;;;;;;;2.15;1.95;;;;;;;19.25;47.61;99428.50;1787548;78;20998;-64
2021/09/21 00:34:16;;;;;;;1.75;1.65;;;;;;;19.27;47.63;99430.97;1774553;78;21089;-64
2021/09/21 00:36:44;;;;;;;1.80;1.70;;;;;;;19.27;47.63;99430.44;1772865;79;20965;-64
2021/09/21 00:39:12;;;;;;;2.12;1.92;;;;;;;19.27;47.64;99436.36;1767102;78;21064;-64
2021/09/21 00:41:39;;;;;;;1.80;1.70;;;;;;;19.28;47.61;99436.13;1786877;78;21053;-64
2021/09/21 00:44:06;;;;;;;1.67;1.57;;;;;;;19.29;47.63;99435.59;1785177;78;21029;-63
2021/09/21 00:46:32;;;;;;;2.02;1.82;;;;;;;19.29;47.57;99432.91;1789111;78;21057;-64
2021/09/21 00:49:00;;;;;;;1.80;1.70;;;;;;;19.29;47.60;99433.72;1768448;79;21620;-62
2021/09/21 00:51:26;;;;;;;2.00;1.87;;;;;;;19.30;47.58;99434.02;1790417;79;21692;-63
2021/09/21 00:53:54;;;;;;;2.55;2.25;;;;;;;19.30;47.58;99435.38;1784303;79;21001;-63
2021/09/21 00:56:22;;;;;;;3.10;1.90;;;;;;;19.30;47.59;99435.38;1778045;79;21118;-63
2021/09/21 00:58:50;;;;;;;2.05;1.87;;;;;;;19.31;47.58;99445.08;1792327;79;21524;-63
2021/09/21 01:01:19;;;;;;;1.85;1.57;;;;;;;19.32;47.60;99435.14;1788745;79;20999;-63
2021/09/21 01:03:47;;;;;;;2.10;1.90;;;;;;;19.31;47.58;99437.00;1795064;79;21073;-63
2021/09/21 01:06:15;;;;;;;3.00;1.65;;;;;;;19.32;47.57;99438.65;1798088;79;21096;-63
2021/09/21 01:08:41;;;;;;;1.75;1.60;;;;;;;19.33;47.59;99447.01;1790993;79;21013;-64
2021/09/21 01:11:13;;;;;;;1.70;1.60;;;;;;;19.33;47.54;99448.35;1787818;79;21198;-64
2021/09/21 01:13:41;;;;;;;1.60;1.50;;;;;;;19.33;47.55;99453.73;1798125;79;21044;-63
2021/09/21 01:16:07;;;;;;;2.00;1.80;;;;;;;19.33;47.55;99453.73;1788828;79;21504;-63
2021/09/21 01:18:35;;;;;;;1.60;1.50;;;;;;;19.35;47.56;99452.17;1814220;78;21051;-63
2021/09/21 01:21:09;;;;;;;1.57;1.47;;;;;;;19.34;47.54;99447.31;1777822;80;21021;-62
2021/09/21 01:23:50;;;;;;;2.00;1.80;;;;;;;19.35;47.54;99448.12;1785262;78;21107;-63
2021/09/21 01:26:18;;;;;;;1.90;1.70;;;;;;;19.34;47.54;99445.16;1793043;79;21124;-63
2021/09/21 01:28:47;;;;;;;1.75;1.65;;;;;;;19.35;47.52;99443.55;1790235;79;21478;-63
2021/09/21 01:31:13;;;;;;;2.47;1.70;;;;;;;19.35;47.52;99454.33;1806511;79;21071;-64
2021/09/21 01:33:46;;;;;;;1.90;1.47;;;;;;;19.35;47.57;99450.29;1811374;79;21076;-63
2021/09/21 01:36:17;;;;;;;1.57;1.47;;;;;;;19.37;47.54;99448.21;1809594;79;21104;-63
2021/09/21 01:38:45;;;;;;;1.80;1.70;;;;;;;19.37;47.54;99448.21;1797809;79;21032;-63
2021/09/21 01:41:11;;;;;;;2.37;2.17;;;;;;;19.38;47.49;99448.48;1789476;79;21599;-63
2021/09/21 01:43:42;;;;;;;1.80;1.70;;;;;;;19.40;47.48;99446.91;1802457;79;21048;-64
2021/09/21 01:46:09;;;;;;;1.37;1.20;;;;;;;19.41;47.47;99440.45;1806935;78;21061;-62
2021/09/21 01:48:37;;;;;;;1.80;1.65;;;;;;;19.43;47.46;99445.08;1793847;79;21016;-63
2021/09/21 01:51:12;;;;;;;1.35;1.25;;;;;;;19.43;47.45;99443.73;1794232;79;21127;-63
2021/09/21 01:53:45;;;;;;;1.70;1.60;;;;;;;19.44;47.43;99444.86;1794193;79;21024;-64
2021/09/21 01:58:52;;;;;;;1.47;1.37;;;;;;;19.47;47.38;99454.36;1814304;78;21478;-63
2021/09/21 02:01:22;;;;;;;1.60;1.50;;;;;;;19.46;47.32;99445.97;1791610;79;21550;-64
2021/09/21 02:03:57;;;;;;;1.62;1.52;;;;;;;19.47;47.32;99450.33;1790084;78;21073;-63
2021/09/21 02:06:58;;;;;;;1.70;1.60;;;;;;;19.48;47.31;99445.75;1775164;79;20995;-64
2021/09/21 02:08:59;;;;;;;1.70;1.60;;;;;;;19.48;47.28;99449.25;1777693;79;21029;-63
2021/09/21 02:11:27;;;;;;;1.70;1.60;;;;;;;19.48;47.24;99450.60;1784620;79;21494;-64
2021/09/21 02:13:58;;;;;;;1.47;1.37;;;;;;;19.49;47.21;99454.11;1795808;79;20997;-63
2021/09/21 02:16:26;;;;;;;1.45;1.35;;;;;;;19.49;47.19;99452.25;1795384;79;21129;-63
2021/09/21 02:18:54;;;;;;;1.57;1.47;;;;;;;19.50;47.16;99451.72;1798792;79;21072;-63
2021/09/21 02:21:22;;;;;;;1.50;1.40;;;;;;;19.49;47.15;99459.50;1776362;79;21009;-64
2021/09/21 02:23:50;;;;;;;1.22;1.10;;;;;;;19.50;47.12;99463.84;1794799;79;21565;-63
2021/09/21 02:26:18;;;;;;;1.67;1.57;;;;;;;19.50;47.09;99455.23;1778122;79;21069;-63
2021/09/21 02:28:47;;;;;;;1.80;1.70;;;;;;;19.51;47.04;99459.58;1783572;79;21096;-62
2021/09/21 02:31:15;;;;;;;1.70;1.60;;;;;;;19.51;47.02;99449.30;1779786;79;21584;-63
2021/09/21 02:33:43;;;;;;;1.80;1.70;;;;;;;19.51;46.97;99457.38;1775631;79;21049;-63
2021/09/21 02:36:10;;;;;;;1.98;1.30;;;;;;;19.49;46.95;99460.84;1788796;79;21069;-63
2021/09/21 02:38:36;;;;;;;1.67;1.57;;;;;;;19.51;46.90;99460.92;1784577;79;21041;-63
2021/09/21 02:41:05;;;;;;;1.77;1.67;;;;;;;19.51;46.90;99456.88;1755605;80;21057;-63
2021/09/21 02:43:31;;;;;;;1.50;1.40;;;;;;;19.52;46.84;99457.16;1782405;79;21016;-64
2021/09/21 02:46:01;;;;;;;1.52;1.42;;;;;;;19.51;46.85;99452.84;1792474;79;21016;-63
2021/09/21 02:48:29;;;;;;;1.65;1.55;;;;;;;19.50;46.80;99456.58;1796518;79;21092;-64
2021/09/21 02:50:56;;;;;;;1.50;1.40;;;;;;;19.50;46.77;99460.61;1786242;79;21029;-64
2021/09/21 02:53:23;;;;;;;1.37;1.27;;;;;;;19.51;46.73;99454.69;1780544;79;21140;-63
2021/09/21 02:55:49;;;;;;;1.37;1.30;;;;;;;19.51;46.73;99457.38;1792072;79;21045;-64
2021/09/21 02:58:16;;;;;;;1.92;1.60;;;;;;;19.51;46.70;99452.00;1798560;79;21037;-64
2021/09/21 03:00:44;;;;;;;4.20;1.67;;;;;;;19.50;46.65;99456.58;1785252;79;21025;-63
2021/09/21 03:03:11;;;;;;;1.60;1.50;;;;;;;19.51;46.60;99460.08;1782863;79;21068;-63
2021/09/21 03:05:51;;;;;;;3.47;2.20;;;;;;;19.50;46.60;99458.45;1796213;79;21151;-64
2021/09/21 03:08:17;;;;;;;2.15;1.90;;;;;;;19.50;46.60;99467.34;1797078;79;21065;-63
2021/09/21 03:10:54;;;;;;;1.70;1.60;;;;;;;19.50;46.56;99463.31;1791450;79;21013;-63
2021/09/21 03:13:38;;;;;;;2.20;1.95;;;;;;;19.50;46.56;99461.96;1790730;79;21001;-64
2021/09/21 03:18:39;;;;;;;1.95;1.82;;;;;;;19.49;46.53;99463.03;1790095;79;21061;-64
2021/09/21 03:21:06;;;;;;;2.20;2.00;;;;;;;19.50;46.53;99466.54;1789443;79;21068;-64
2021/09/21 03:23:34;;;;;;;1.98;1.75;;;;;;;19.49;46.51;99467.07;1794627;79;21061;-64
2021/09/21 03:26:00;;;;;;;2.60;2.00;;;;;;;19.50;46.52;99465.19;1790233;79;21060;-64
2021/09/21 03:28:27;;;;;;;2.22;1.75;;;;;;;19.50;46.51;99463.84;1792171;79;21108;-63
2021/09/21 03:30:56;;;;;;;1.60;1.50;;;;;;;19.51;46.51;99464.12;1782057;79;21569;-63
2021/09/21 03:33:24;;;;;;;1.80;1.70;;;;;;;19.51;46.52;99468.16;1788502;79;21093;-63
2021/09/21 03:35:51;;;;;;;1.87;1.77;;;;;;;19.53;46.49;99466.05;1785001;79;21097;-63
2021/09/21 03:38:17;;;;;;;2.02;1.72;;;;;;;19.53;46.45;99470.09;1791183;79;21755;-63
2021/09/21 03:40:44;;;;;;;1.95;1.70;;;;;;;19.52;46.44;99473.33;1798585;79;21030;-63
2021/09/21 03:43:10;;;;;;;1.70;1.60;;;;;;;19.54;46.43;99470.41;1804174;79;21119;-64
2021/09/21 03:45:38;;;;;;;2.10;1.90;;;;;;;19.54;46.42;99467.70;1784335;79;21091;-63
2021/09/21 03:48:07;;;;;;;2.80;1.82;;;;;;;19.56;46.43;99466.95;1782950;79;21214;-63
2021/09/21 03:50:33;;;;;;;1.95;1.72;;;;;;;19.57;46.37;99468.59;1773884;79;21050;-63
2021/09/21 03:53:02;;;;;;;2.37;2.17;;;;;;;19.57;46.34;99466.72;1789364;79;21103;-63
2021/09/21 03:55:28;;;;;;;1.98;1.80;;;;;;;19.58;46.32;99474.27;1788711;79;21102;-64
2021/09/21 03:57:55;;;;;;;2.33;2.12;;;;;;;19.58;46.29;99468.34;1784894;79;21419;-63
2021/09/21 04:00:21;;;;;;;3.62;2.00;;;;;;;19.60;46.27;99461.38;1775256;78;21551;-63
2021/09/21 04:02:49;;;;;;;1.80;1.70;;;;;;;19.60;46.27;99464.07;1790403;79;21002;-64
2021/09/21 04:05:16;;;;;;;2.70;1.80;;;;;;;19.62;46.25;99464.66;1794293;79;21048;-63
2021/09/21 04:07:42;;;;;;;2.08;1.87;;;;;;;19.63;46.23;99464.96;1773084;79;21102;-63
2021/09/21 04:10:10;;;;;;;1.82;1.70;;;;;;;19.64;46.19;99466.59;1772526;79;20989;-64
2021/09/21 04:12:37;;;;;;;2.85;1.77;;;;;;;19.64;46.20;99464.73;1780611;79;21537;-64
2021/09/21 04:15:06;;;;;;;1.40;1.30;;;;;;;19.65;46.22;99466.36;1792299;79;21080;-63
2021/09/21 04:17:33;;;;;;;1.70;1.60;;;;;;;19.67;46.18;99468.83;1790292;79;21258;-64
2021/09/21 04:19:59;;;;;;;1.70;1.60;;;;;;;19.58;46.17;99450.83;1818901;78;21088;-64
2021/09/21 04:22:27;;;;;;;2.08;1.70;;;;;;;19.69;46.14;99469.95;1780059;78;21525;-63
2021/09/21 04:24:55;;;;;;;1.62;1.52;;;;;;;19.69;46.10;99461.33;1797142;78;21337;-62
2021/09/21 04:27:22;;;;;;;1.72;1.60;;;;;;;19.70;46.08;99465.67;1800082;78;21106;-64
2021/09/21 04:29:53;;;;;;;1.45;1.35;;;;;;;19.71;46.08;99471.34;1779163;79;21068;-63
2021/09/21 04:32:17;;;;;;;1.85;1.70;;;;;;;19.72;46.06;99469.48;1790705;79;21206;-64
2021/09/21 04:34:45;;;;;;;1.80;1.70;;;;;;;19.73;46.05;99469.80;1783235;79;21548;-63
2021/09/21 04:37:12;;;;;;;2.20;1.80;;;;;;;19.74;45.99;99470.92;1739622;80;20974;-63
2021/09/21 04:39:41;;;;;;;2.05;1.90;;;;;;;19.76;46.00;99472.00;1789801;79;21497;-63
2021/09/21 04:42:11;;;;;;;2.10;1.90;;;;;;;19.76;45.99;99463.41;1792582;79;21048;-64
2021/09/21 04:44:37;;;;;;;1.92;1.72;;;;;;;19.76;45.96;99464.77;1811651;78;21343;-64
2021/09/21 04:47:05;;;;;;;2.00;1.80;;;;;;;19.78;45.93;99469.39;1794625;79;21554;-64
2021/09/21 04:49:32;;;;;;;1.95;1.80;;;;;;;19.80;45.91;99465.12;1787490;79;21054;-64
2021/09/21 04:51:58;;;;;;;1.98;1.80;;;;;;;19.80;45.92;99465.12;1794683;78;21131;-63
2021/09/21 04:54:26;;;;;;;1.70;1.60;;;;;;;19.82;45.84;99464.35;1800654;78;21038;-63
2021/09/21 04:56:54;;;;;;;1.60;1.50;;;;;;;19.83;45.81;99470.83;1788698;79;21049;-61
2021/09/21 04:59:23;;;;;;;1.62;1.52;;;;;;;19.84;45.81;99461.70;1786772;78;21041;-61
2021/09/21 05:01:49;;;;;;;2.67;1.67;;;;;;;19.86;45.76;99464.67;1810279;78;21018;-61
2021/09/21 05:04:15;;;;;;;1.72;1.60;;;;;;;19.87;45.78;99463.63;1817132;78;21022;-60
2021/09/21 05:06:42;;;;;;;2.00;1.90;;;;;;;19.89;45.72;99464.22;1786754;78;21018;-66
2021/09/21 05:09:13;;;;;;;1.98;1.70;;;;;;;19.90;45.73;99468.56;1818945;78;21104;-65
2021/09/21 05:11:38;;;;;;;2.95;1.77;;;;;;;19.90;45.71;99463.98;1767649;79;21057;-62
2021/09/21 05:14:05;;;;;;;1.80;1.70;;;;;;;19.92;48.32;99456.48;1815370;78;20958;-61
2021/09/21 05:16:37;;;;;;;1.95;1.62;;;;;;;19.98;52.06;99462.80;1774000;79;22002;-61
2021/09/21 05:19:03;;;;;;;1.95;1.75;;;;;;;20.05;53.04;99460.81;1818280;78;21103;-61
2021/09/21 05:21:31;;;;;;;5.40;1.92;;;;;;;20.13;53.42;99467.17;1804599;78;21122;-60
2021/09/21 05:23:59;;;;;;;4.92;2.00;;;;;;;20.21;53.46;99465.45;1783405;78;21032;-60
2021/09/21 05:26:25;;;;;;;2.12;1.80;;;;;;;20.29;53.32;99466.95;1772836;79;21560;-61
2021/09/21 05:28:51;;;;;;;3.83;1.52;;;;;;;20.37;53.09;99465.23;1788586;79;21062;-60
2021/09/21 05:31:18;;;;;;;2.45;1.98;;;;;;;20.44;52.90;99458.36;1794228;79;21060;-60
2021/09/21 05:33:44;;;;;;;4.95;1.80;;;;;;;20.50;52.70;99462.80;1786446;79;21089;-60
2021/09/21 05:36:11;;;;;;;3.45;2.10;;;;;;;20.57;52.61;99463.48;1779202;79;21089;-59
2021/09/21 05:38:37;;;;;;;2.17;1.70;;;;;;;20.62;52.46;99459.54;1789187;79;21480;-59
2021/09/21 05:41:05;;;;;;;2.62;1.70;;;;;;;20.69;52.30;99462.66;1787394;79;21053;-58
2021/09/21 05:43:32;;;;;;;5.03;1.80;;;;;;;20.73;52.14;99459.22;1780195;79;21037;-60
2021/09/21 05:45:58;;;;;;;3.37;2.42;;;;;;;20.78;51.95;99458.48;1775915;79;23299;-60
2021/09/21 05:48:24;;;;;;;3.52;1.98;;;;;;;20.83;51.72;99455.08;1771752;79;21657;-59
2021/09/21 05:50:51;;;;;;;3.95;1.80;;;;;;;20.87;51.71;99461.08;1788614;79;21000;-59
2021/09/21 05:53:17;;;;;;;3.45;1.90;;;;;;;20.92;51.76;99453.59;1786848;80;21084;-59
2021/09/21 05:55:44;;;;;;;5.03;2.00;;;;;;;20.96;51.74;99446.67;1781708;79;21042;-58
2021/09/21 05:58:11;;;;;;;4.83;2.08;;;;;;;21.01;52.43;99431.89;1788681;80;21207;-57
2021/09/21 06:00:37;;;;;;;4.92;2.15;;;;;;;21.07;52.59;99424.69;1769946;79;21033;-58
2021/09/21 06:04:26;;;;;;;5.85;2.22;;;;;;;21.21;52.46;99429.53;1875848;75;22560;-57
2021/09/21 06:06:52;;;;;;;3.95;2.17;;;;;;;21.23;52.23;99434.70;1834930;76;20915;-58
2021/09/21 06:09:19;;;;;;;5.83;2.20;;;;;;;21.30;52.04;99422.36;1827995;77;21564;-58
2021/09/21 06:11:45;;;;;;;3.90;2.08;;;;;;;21.34;51.83;99425.70;1834044;77;21056;-58
2021/09/21 06:14:11;;;;;;;3.52;2.02;;;;;;;21.40;51.62;99423.86;1829426;77;21016;-58
2021/09/21 06:16:39;;;;;;;3.60;1.90;;;;;;;21.47;51.48;99432.66;1841585;76;21040;-58
2021/09/21 06:19:06;;;;;;;5.75;2.30;;;;;;;21.50;51.29;99427.28;1831328;77;21055;-58
2021/09/21 06:21:33;;;;;;;3.80;2.05;;;;;;;21.56;51.20;99427.13;1831510;77;22291;-58
2021/09/21 06:24:00;;;;;;;2.65;1.70;;;;;;;21.60;51.10;99426.91;1834540;77;20941;-57
2021/09/21 06:26:28;;;;;;;4.45;1.75;;;;;;;21.64;51.14;99430.48;1832205;77;21004;-57
2021/09/21 06:28:54;;;;;;;7.70;1.92;;;;;;;21.67;51.30;99433.51;1827320;77;20986;-57
2021/09/21 06:31:20;;;;;;;5.65;2.52;;;;;;;21.70;51.50;99426.23;1845708;77;21005;-56
2021/09/21 06:33:49;;;;;;;5.90;2.22;;;;;;;21.74;51.81;99440.89;1842662;76;21529;-57
2021/09/21 06:36:16;;;;;;;7.10;2.37;;;;;;;21.77;52.08;99439.59;1825717;77;21080;-57
2021/09/21 06:38:43;;;;;;;5.78;2.47;;;;;;;21.80;52.29;99443.13;1856835;77;21056;-57
2021/09/21 06:41:10;;;;;;;6.87;2.20;;;;;;;21.83;52.49;99440.45;1851299;76;21020;-57
2021/09/21 06:43:36;;;;;;;5.05;2.55;;;;;;;21.86;52.65;99453.48;1831931;77;20994;-57
2021/09/21 06:46:04;;;;;;;12.88;2.25;;;;;;;21.88;52.72;99456.76;1821414;77;21131;-56
2021/09/21 06:48:30;;;;;;;4.78;1.82;;;;;;;21.91;52.66;99461.14;1836806;77;21036;-58
2021/09/21 06:50:56;;;;;;;3.90;1.65;;;;;;;21.93;52.53;99461.70;1835007;75;20966;-58
2021/09/21 06:53:23;;;;;;;4.17;2.10;;;;;;;21.96;52.38;99462.56;1843088;77;21522;-58
2021/09/21 06:55:50;;;;;;;4.97;2.08;;;;;;;21.97;52.20;99475.55;1841324;77;21076;-58
2021/09/21 06:58:16;;;;;;;4.90;1.98;;;;;;;22.00;52.01;99480.47;1852419;76;21202;-58
2021/09/21 07:00:45;;;;;;;6.83;2.35;;;;;;;22.02;51.91;99478.84;1839547;76;21528;-57
2021/09/21 07:03:12;;;;;;;4.40;2.40;;;;;;;22.04;51.76;99483.47;1846841;77;21053;-57
2021/09/21 07:05:39;;;;;;;5.85;2.58;;;;;;;22.07;51.70;99482.98;1804385;77;20995;-57
2021/09/21 07:08:05;;;;;;;7.95;2.42;;;;;;;22.07;51.62;99486.50;1817881;77;21068;-57
2021/09/21 07:10:32;;;;;;;6.08;2.22;;;;;;;22.10;51.57;99487.36;1845590;77;21121;-57
2021/09/21 07:12:59;;;;;;;5.17;2.25;;;;;;;22.11;51.58;99493.58;1845689;76;21004;-58
2021/09/21 07:15:25;;;;;;;8.38;2.10;;;;;;;22.14;51.41;99494.45;1836122;77;21072;-56
2021/09/21 07:17:53;;;;;;;9.08;2.17;;;;;;;22.16;51.24;99493.66;1842627;77;21045;-59
2021/09/21 07:20:24;;;;;;;8.48;2.95;;;;;;;22.17;51.04;99497.98;1842360;77;21053;-58
2021/09/21 07:22:52;;;;;;;5.10;2.22;;;;;;;22.11;50.83;99485.47;1842291;77;21044;-59
2021/09/21 07:25:20;;;;;;;3.80;1.87;;;;;;;22.19;50.57;99501.26;1853688;76;21076;-58
2021/09/21 07:27:47;;;;;;;3.33;2.30;;;;;;;22.20;50.28;99474.50;1841708;75;21544;-60
2021/09/21 07:30:15;;;;;;;5.30;2.35;;;;;;;22.21;49.95;99491.00;1844213;75;21072;-60
2021/09/21 07:32:42;;;;;;;6.22;2.52;;;;;;;22.23;49.66;99485.34;1848358;77;21500;-59
2021/09/21 07:35:09;;;;;;;4.08;1.82;;;;;;;22.23;49.32;99496.98;1798902;78;21495;-59
2021/09/21 07:37:35;;;;;;;5.00;2.47;;;;;;;22.25;49.13;99490.00;1775693;79;21572;-59
2021/09/21 07:40:06;;;;;;;5.40;2.20;;;;;;;22.25;48.96;99490.00;1778715;80;21113;-61
2021/09/21 07:42:32;;;;;;;10.55;3.15;;;;;;;22.28;48.85;99493.57;1776458;79;21765;-61
2021/09/21 07:45:00;;;;;;;2.80;1.90;;;;;;;22.28;48.74;99490.87;1765185;80;21013;-62
2021/09/21 07:47:27;;;;;;;5.40;2.22;;;;;;;22.30;48.65;99494.14;1766986;79;21830;-62
2021/09/21 07:49:54;;;;;;;6.50;2.30;;;;;;;22.31;48.55;99490.34;1773973;80;21089;-59
2021/09/21 07:52:21;;;;;;;4.92;2.10;;;;;;;22.32;48.46;99499.57;1774243;80;21037;-60
2021/09/21 07:54:48;;;;;;;5.28;1.92;;;;;;;22.33;48.38;99493.10;1802437;78;21014;-59
2021/09/21 07:57:16;;;;;;;4.72;2.00;;;;;;;22.36;48.28;99501.24;1811574;79;21020;-59
2021/09/21 07:59:44;;;;;;;3.58;1.82;;;;;;;22.37;48.24;99497.48;1806851;79;21502;-58
2021/09/21 08:02:12;;;;;;;2.33;1.77;;;;;;;22.37;48.16;99496.13;1804489;79;21044;-59
2021/09/21 08:04:42;;;;;;;4.60;2.08;;;;;;;22.39;48.06;99492.64;1800840;79;21057;-60
2021/09/21 08:07:09;;;;;;;3.50;2.25;;;;;;;22.41;48.01;99496.42;1785212;79;21092;-58
2021/09/21 08:09:37;;;;;;;4.37;2.02;;;;;;;22.43;47.97;99497.82;1753556;79;21069;-60
2021/09/21 08:12:06;;;;;;;4.75;2.00;;;;;;;22.44;47.88;99498.09;1787670;79;21549;-59
2021/09/21 08:14:36;;;;;;;2.20;2.00;;;;;;;22.45;47.82;99497.03;1778481;79;21555;-59
2021/09/21 08:17:00;;;;;;;2.50;1.95;;;;;;;22.46;47.75;99496.48;1794357;78;21065;-59
2021/09/21 08:19:28;;;;;;;2.95;1.80;;;;;;;22.48;47.67;99494.34;1791293;79;21076;-59
2021/09/21 08:21:55;;;;;;;3.02;2.00;;;;;;;22.49;47.60;99492.75;1790585;79;21052;-59
2021/09/21 08:24:23;;;;;;;2.50;2.20;;;;;;;22.50;47.54;99486.28;1778800;79;21060;-60
2021/09/21 08:26:49;;;;;;;2.30;2.08;;;;;;;22.51;47.45;99483.84;1784089;78;21538;-59
2021/09/21 08:29:16;;;;;;;3.67;2.10;;;;;;;22.52;47.37;99486.84;1778257;79;21025;-59
2021/09/21 08:31:44;;;;;;;2.65;2.20;;;;;;;22.53;47.32;99491.17;1782722;79;21506;-60
2021/09/21 08:34:10;;;;;;;4.10;2.50;;;;;;;22.54;47.24;99484.70;1784648;78;21112;-61
2021/09/21 08:36:37;;;;;;;2.42;1.87;;;;;;;22.56;47.17;99485.77;1777406;79;21210;-59
2021/09/21 08:39:04;;;;;;;3.27;2.10;;;;;;;22.57;47.12;99482.81;1783224;79;21064;-58
2021/09/21 08:41:31;;;;;;;3.75;1.80;;;;;;;22.57;47.06;99481.47;1779597;79;21139;-59
2021/09/21 08:43:58;;;;;;;2.80;2.10;;;;;;;22.60;47.00;99488.80;1767145;79;21625;-58
2021/09/21 08:46:27;;;;;;;1.77;1.67;;;;;;;22.62;46.91;99477.17;1783530;79;21006;-59
2021/09/21 08:48:55;;;;;;;3.42;1.98;;;;;;;22.62;46.81;99471.77;1775363;78;21149;-59
2021/09/21 08:51:21;;;;;;;4.97;2.20;;;;;;;22.63;46.76;99477.47;1782239;78;21093;-59
2021/09/21 08:53:48;;;;;;;2.02;1.82;;;;;;;22.64;46.79;99476.38;1779133;78;21571;-61
2021/09/21 08:56:16;;;;;;;4.80;2.10;;;;;;;22.65;46.79;99476.14;1783333;79;21071;-58
2021/09/21 08:58:42;;;;;;;2.98;2.00;;;;;;;22.66;46.74;99471.02;1773465;79;21514;-58
2021/09/21 09:01:13;;;;;;;2.87;1.87;;;;;;;22.66;46.74;99473.73;1783663;79;21112;-58
2021/09/21 09:03:40;;;;;;;3.20;1.90;;;;;;;22.67;46.77;99479.95;1777087;79;21029;-59
2021/09/21 09:06:07;;;;;;;2.12;1.72;;;;;;;22.68;46.76;99481.60;1762530;79;21069;-60
2021/09/21 09:08:37;;;;;;;3.08;1.82;;;;;;;22.61;46.75;99472.84;1762427;80;21065;-60
2021/09/21 09:11:20;;;;;;;1.80;1.70;;;;;;;22.69;46.71;99489.98;1759432;79;21060;-59
2021/09/21 09:13:56;;;;;;;1.90;1.70;;;;;;;22.70;46.71;99482.97;1757601;80;21143;-58
2021/09/21 09:16:25;;;;;;;3.70;1.80;;;;;;;22.70;46.71;99487.58;1766704;79;21640;-60
2021/09/21 09:19:04;;;;;;;2.83;1.77;;;;;;;22.71;46.70;99488.66;1763925;79;21087;-59
2021/09/21 09:21:39;;;;;;;3.60;1.75;;;;;;;22.71;46.69;99498.13;1758914;79;21073;-58
2021/09/21 09:24:07;;;;;;;3.45;1.70;;;;;;;22.73;46.70;99497.87;1764055;79;21607;-61
2021/09/21 09:26:37;;;;;;;2.02;1.60;;;;;;;22.74;46.73;99500.88;1762550;79;21203;-58
2021/09/21 09:29:09;;;;;;;1.72;1.50;;;;;;;22.72;46.71;99497.61;1783617;79;21142;-58
2021/09/21 09:31:36;;;;;;;2.30;2.10;;;;;;;22.74;46.71;99496.28;1769511;79;21717;-58
2021/09/21 09:34:12;;;;;;;2.98;1.75;;;;;;;22.74;46.71;99496.28;1765688;79;21476;-59
2021/09/21 09:36:52;;;;;;;2.65;1.62;;;;;;;22.75;46.78;99488.97;1773372;79;21049;-58
2021/09/21 09:39:21;;;;;;;3.60;1.98;;;;;;;22.76;46.85;99499.55;1767451;79;21133;-59
2021/09/21 09:41:51;;;;;;;2.65;1.85;;;;;;;22.76;46.96;99505.51;1775186;79;21076;-61
2021/09/21 09:44:22;;;;;;;5.30;2.00;;;;;;;22.76;46.93;99500.09;1783336;79;21013;-60
2021/09/21 09:46:53;;;;;;;2.52;1.70;;;;;;;22.77;47.00;99503.91;1788022;79;21045;-60
2021/09/21 09:49:37;;;;;;;4.97;1.80;;;;;;;22.78;47.08;99504.17;1757068;80;21093;-59
2021/09/21 09:52:15;;;;;;;3.12;1.65;;;;;;;22.79;47.16;99500.92;1751750;80;21537;-60
2021/09/21 09:54:47;;;;;;;5.00;2.25;;;;;;;22.79;47.22;99503.63;1769626;79;21094;-60
2021/09/21 09:57:15;;;;;;;4.95;2.37;;;;;;;22.79;47.31;99504.98;1754364;80;21010;-61
2021/09/21 09:59:41;;;;;;;4.65;1.80;;;;;;;22.81;47.37;99502.02;1778817;79;21089;-61
2021/09/21 10:02:08;;;;;;;2.52;1.85;;;;;;;22.81;47.42;99506.90;1780739;79;21585;-60
2021/09/21 10:04:36;;;;;;;2.92;2.12;;;;;;;22.81;47.42;99506.09;1763650;79;22165;-60
2021/09/21 10:07:04;;;;;;;2.50;1.70;;;;;;;22.83;47.38;99503.94;1739547;80;21111;-60
2021/09/21 10:09:30;;;;;;;2.50;1.72;;;;;;;22.83;47.35;99504.78;1708513;81;21028;-62
2021/09/21 10:11:58;;;;;;;4.53;1.77;;;;;;;22.82;47.34;99505.84;1759196;79;21033;-60
2021/09/21 10:14:25;;;;;;;3.15;1.45;;;;;;;22.83;47.31;99510.20;1742390;79;21009;-59
2021/09/21 10:16:54;;;;;;;4.85;2.12;;;;;;;22.84;47.30;99510.46;1744058;80;22075;-60
2021/09/21 10:19:23;;;;;;;1.70;1.60;;;;;;;22.85;47.28;99514.82;1737545;81;21064;-60
2021/09/21 10:21:51;;;;;;;2.47;1.85;;;;;;;22.86;47.30;99516.98;1753189;79;21047;-63
2021/09/21 10:24:31;;;;;;;2.10;1.70;;;;;;;22.87;47.28;99515.39;1745239;80;21577;-60
2021/09/21 10:27:11;;;;;;;1.82;1.55;;;;;;;22.88;47.30;99517.55;1717414;81;21041;-58
2021/09/21 10:29:39;;;;;;;1.52;1.42;;;;;;;22.87;47.33;99518.09;1737651;80;21090;-60
2021/09/21 10:32:16;;;;;;;2.58;1.55;;;;;;;22.85;47.28;99512.12;1749319;80;21081;-60
2021/09/21 10:34:46;;;;;;;2.75;1.70;;;;;;;22.87;47.28;99531.63;1731655;80;21115;-60
2021/09/21 10:37:12;;;;;;;2.02;1.80;;;;;;;22.88;47.29;99537.86;1749538;80;21030;-60
2021/09/21 10:39:40;;;;;;;1.62;1.52;;;;;;;22.88;47.27;99522.42;1757972;79;21652;-59
2021/09/21 10:42:09;;;;;;;1.72;1.60;;;;;;;22.89;47.27;99518.66;1763792;79;21072;-59
2021/09/21 10:44:36;;;;;;;1.75;1.65;;;;;;;22.90;47.23;99526.23;1750839;80;21072;-59
2021/09/21 10:47:06;;;;;;;1.55;1.45;;;;;;;22.89;47.21;99522.72;1765475;81;20986;-60
2021/09/21 10:49:42;;;;;;;1.60;1.50;;;;;;;22.91;47.22;99525.18;1751356;79;21056;-59
2021/09/21 10:52:15;;;;;;;2.62;1.70;;;;;;;22.92;47.19;99530.86;1765765;81;21088;-59
2021/09/21 10:54:53;;;;;;;1.80;1.50;;;;;;;22.91;47.20;99523.83;1762246;79;21521;-61
2021/09/21 10:57:38;;;;;;;2.05;1.60;;;;;;;22.91;47.12;99525.98;1747280;79;21587;-62
2021/09/21 11:00:12;;;;;;;1.60;1.50;;;;;;;22.91;47.12;99533.30;1753713;79;21044;-60
2021/09/21 11:02:42;;;;;;;3.15;1.67;;;;;;;22.90;47.10;99532.46;1760168;79;21046;-60
2021/09/21 11:05:17;;;;;;;2.33;1.67;;;;;;;22.91;47.12;99537.37;1780867;78;21532;-60
2021/09/21 11:08:02;;;;;;;3.30;2.02;;;;;;;22.91;47.07;99538.72;1774535;79;21013;-59
2021/09/21 11:10:37;;;;;;;3.25;1.70;;;;;;;22.91;47.10;99570.67;1800077;79;21561;-59
2021/09/21 11:13:14;;;;;;;2.60;1.50;;;;;;;22.92;47.21;99574.20;1807945;79;21030;-64
2021/09/21 11:15:43;;;;;;;1.60;1.50;;;;;;;22.91;47.65;99570.67;1794467;79;21053;-63
2021/09/21 11:18:15;;;;;;;1.85;1.52;;;;;;;22.95;47.71;99572.34;1777657;80;21107;-63
2021/09/21 11:20:52;;;;;;;7.62;1.60;;;;;;;23.01;47.48;99569.97;1779793;80;21046;-66
2021/09/21 11:23:21;;;;;;;2.25;1.87;;;;;;;23.12;47.27;99573.11;1795701;79;21116;-64
2021/09/21 11:25:48;;;;;;;5.28;2.17;;;;;;;23.23;46.86;99563.72;1795904;79;21080;-67
2021/09/21 11:28:17;;;;;;;5.12;1.60;;;;;;;23.33;46.52;99570.07;1791242;79;21052;-69
2021/09/21 11:30:44;;;;;;;4.45;1.75;;;;;;;23.44;46.03;99573.67;1790121;79;21174;-64
2021/09/21 11:33:30;;;;;;;4.17;1.92;;;;;;;23.55;45.56;99570.53;1773463;79;21127;-68
2021/09/21 11:36:06;;;;;;;1.77;1.67;;;;;;;23.65;45.12;99570.61;1783056;79;21053;-66
2021/09/21 11:38:39;;;;;;;2.02;1.70;;;;;;;23.74;44.60;99571.77;1773606;79;21576;-67
2021/09/21 11:41:07;;;;;;;1.90;1.70;;;;;;;23.84;44.23;99567.55;1787723;78;21084;-65
2021/09/21 11:43:34;;;;;;;3.50;1.40;;;;;;;23.91;43.91;99574.90;1788034;79;21108;-66
2021/09/21 11:46:02;;;;;;;2.95;1.80;;;;;;;23.99;43.59;99577.67;1795440;79;21357;-64
2021/09/21 11:48:28;;;;;;;2.77;1.90;;;;;;;24.06;43.25;99575.55;1763748;79;21306;-65